San Leanna, Texas
Current Conditions -  °F | °C
As of 9:53 PM on Wednesday 26 Nov 2014 (Local Time) from KAUS Reporting Station
Clear Clear  
Wind Chill: 51°   Ceiling: Unl
Heat Index: 51°   Visibility: 10mi
Dew Point: 37°   Wind: 7mph
Humidity: 59%   Direction: 350°N
Pressure: 30.32"   Gusts: NA
Location:  30.1663°N, 97.8257°W
Report Text: KAUS 270353Z 35006KT 10SM CLR 11/03 A3032 RMK AO2 SLP266 T01060028
Loading
Personal Weather Stations






























Interactive Weather Map New forecast layout! Learn more

10-Day Weather Forecast

Advertisements
Track Severe Weather on mobile